Time;durP1;ratioP1;P1;durP2;ratioP2;P2;SDS_P1;SDS_P2;PMS_P1;PMS_P2;Temp;Humidity;BMP_temperature;BMP_pressure;BME280_temperature;BME280_humidity;BME280_pressure;Samples;Min_cycle;Max_cycle;Signal;HPM_P1;HPM_P2
2021/12/10 00:00:43;;;;;;;60.77;33.87;;;4.50;99.90;;;;;;5007733;28;20112;-34
2021/12/10 00:03:18;;;;;;;56.00;32.13;;;4.50;99.90;;;;;;5006798;28;20057;-37
2021/12/10 00:05:53;;;;;;;51.03;31.20;;;4.50;99.90;;;;;;5006907;28;20461;-36
2021/12/10 00:08:20;;;;;;;56.43;32.53;;;4.50;99.90;;;;;;4989703;28;20543;-37
2021/12/10 00:10:51;;;;;;;55.60;30.80;;;4.40;99.90;;;;;;5011798;28;20505;-37
2021/12/10 00:13:17;;;;;;;47.50;29.35;;;4.50;99.90;;;;;;5004003;28;20042;-38
2021/12/10 00:15:43;;;;;;;52.93;31.13;;;4.50;99.90;;;;;;5007709;28;20467;-37
2021/12/10 00:18:13;;;;;;;49.63;29.27;;;4.40;99.90;;;;;;4990020;28;20046;-37
2021/12/10 00:20:40;;;;;;;49.50;28.10;;;4.50;99.90;;;;;;5004690;28;20046;-37
2021/12/10 00:23:10;;;;;;;45.60;26.73;;;4.50;99.90;;;;;;5017701;28;20053;-36
2021/12/10 00:25:47;;;;;;;50.27;27.17;;;4.40;99.90;;;;;;5005004;28;20057;-36
2021/12/10 00:28:23;;;;;;;49.03;26.73;;;4.50;99.90;;;;;;4992612;28;20054;-37
2021/12/10 00:31:17;;;;;;;40.10;24.87;;;4.50;99.90;;;;;;5002911;28;20405;-37
2021/12/10 00:34:04;;;;;;;39.97;25.30;;;4.40;99.90;;;;;;5006560;28;20049;-36
2021/12/10 00:36:30;;;;;;;45.90;25.50;;;4.40;99.90;;;;;;4996333;28;20133;-37
2021/12/10 00:38:59;;;;;;;43.33;24.57;;;4.60;99.90;;;;;;5003770;28;20041;-37
2021/12/10 00:41:25;;;;;;;41.10;24.33;;;4.50;99.90;;;;;;5006810;28;20575;-38
2021/12/10 00:43:51;;;;;;;48.63;23.93;;;4.50;99.90;;;;;;5003615;28;20056;-37
2021/12/10 00:46:17;;;;;;;44.00;24.13;;;4.50;99.90;;;;;;4995155;28;20046;-37
2021/12/10 00:48:43;;;;;;;42.40;23.83;;;4.50;99.90;;;;;;5002560;28;20047;-37
2021/12/10 00:51:10;;;;;;;46.97;23.90;;;4.50;99.90;;;;;;5011660;28;20401;-38
2021/12/10 00:53:36;;;;;;;39.70;24.67;;;4.50;99.90;;;;;;5007809;28;20046;-36
2021/12/10 00:56:04;;;;;;;37.73;23.27;;;4.50;99.90;;;;;;5008059;28;20060;-36
2021/12/10 00:58:30;;;;;;;45.30;24.13;;;4.50;99.90;;;;;;4993719;28;20108;-38
2021/12/10 01:01:01;;;;;;;41.33;24.47;;;4.50;99.90;;;;;;5022719;28;20045;-37
2021/12/10 01:03:37;;;;;;;47.65;23.60;;;4.50;99.90;;;;;;5007290;28;20520;-37
2021/12/10 01:06:06;;;;;;;43.67;23.80;;;4.50;99.90;;;;;;5011782;28;20056;-37
2021/12/10 01:08:33;;;;;;;43.40;23.70;;;4.50;99.90;;;;;;4997711;28;20081;-36
2021/12/10 01:11:10;;;;;;;38.53;23.67;;;4.50;99.90;;;;;;5009240;28;20156;-35
2021/12/10 01:13:39;;;;;;;36.83;21.87;;;4.50;99.90;;;;;;5017247;28;20049;-36
2021/12/10 01:24:50;;;;;;;37.50;22.93;;;4.50;99.90;;;;;;5009720;28;20132;-37
2021/12/10 01:27:32;;;;;;;41.77;22.87;;;4.50;99.90;;;;;;4997613;28;20092;-36
2021/12/10 01:29:59;;;;;;;;;;;4.50;99.90;;;;;;5010165;28;20061;-36
2021/12/10 01:32:29;;;;;;;40.80;23.10;;;4.50;99.90;;;;;;5037955;28;19918;-36
2021/12/10 01:34:56;;;;;;;30.00;17.00;;;4.40;99.90;;;;;;5010598;28;20038;-37
2021/12/10 01:37:25;;;;;;;39.30;22.67;;;4.40;99.90;;;;;;4996669;28;20370;-36
2021/12/10 01:39:51;;;;;;;40.50;22.60;;;4.50;99.90;;;;;;5005260;28;20054;-36
2021/12/10 01:42:33;;;;;;;43.47;22.13;;;4.50;99.90;;;;;;5009517;28;20103;-38
2021/12/10 01:45:01;;;;;;;40.93;22.67;;;4.40;99.90;;;;;;5005692;28;20042;-37
2021/12/10 01:47:31;;;;;;;35.20;21.77;;;4.50;99.90;;;;;;5004685;28;20054;-36
2021/12/10 01:49:58;;;;;;;26.50;15.90;;;4.50;99.90;;;;;;5004785;28;20531;-37
2021/12/10 01:52:25;;;;;;;35.33;20.93;;;4.40;99.90;;;;;;5006106;28;20559;-37
2021/12/10 01:54:59;;;;;;;39.73;20.67;;;4.50;99.90;;;;;;5006906;28;20038;-37
2021/12/10 01:57:30;;;;;;;40.03;21.10;;;4.50;99.90;;;;;;4989914;28;20046;-34
2021/12/10 01:59:56;;;;;;;36.33;20.73;;;4.50;99.90;;;;;;5004836;28;20404;-36
2021/12/10 02:02:26;;;;;;;40.00;21.57;;;4.40;99.90;;;;;;5006060;28;20057;-37
2021/12/10 02:04:53;;;;;;;36.73;20.73;;;4.40;99.90;;;;;;5005272;28;20060;-37
2021/12/10 02:07:21;;;;;;;33.10;20.50;;;4.30;99.90;;;;;;4990718;28;20452;-36
2021/12/10 02:09:48;;;;;;;31.43;19.70;;;4.30;99.90;;;;;;5006818;28;20064;-36
2021/12/10 02:12:15;;;;;;;40.20;19.07;;;4.20;99.90;;;;;;5003122;28;20041;-37
2021/12/10 02:14:42;;;;;;;38.57;19.07;;;4.30;99.90;;;;;;5006886;28;20058;-37
2021/12/10 02:17:08;;;;;;;44.30;19.90;;;4.20;99.90;;;;;;4991871;28;20405;-36
2021/12/10 02:19:35;;;;;;;35.27;19.23;;;4.20;99.90;;;;;;5021259;28;20057;-37
2021/12/10 02:22:03;;;;;;;39.43;20.13;;;4.10;99.90;;;;;;5009091;28;20086;-34
2021/12/10 02:24:29;;;;;;;33.00;19.60;;;4.10;99.90;;;;;;5005734;28;20096;-37
2021/12/10 02:26:58;;;;;;;33.83;19.20;;;4.10;99.90;;;;;;4988726;28;20045;-35
2021/12/10 02:29:27;;;;;;;31.57;18.37;;;4.10;99.90;;;;;;5005495;28;20057;-37
2021/12/10 02:31:54;;;;;;;28.97;16.90;;;4.10;99.90;;;;;;5004773;28;20046;-37
2021/12/10 02:34:22;;;;;;;30.43;15.80;;;4.10;99.90;;;;;;5005541;28;20063;-36
2021/12/10 02:36:48;;;;;;;28.27;15.10;;;4.10;99.90;;;;;;4993394;28;20127;-36
2021/12/10 02:39:18;;;;;;;32.80;15.53;;;4.10;99.90;;;;;;5007259;28;20053;-36
2021/12/10 02:41:44;;;;;;;28.40;15.47;;;4.10;99.90;;;;;;5006316;28;20073;-37
2021/12/10 02:44:15;;;;;;;38.40;15.93;;;4.10;99.90;;;;;;5005517;28;20041;-37
2021/12/10 02:46:41;;;;;;;26.27;15.17;;;4.10;99.90;;;;;;4992138;28;20187;-37
2021/12/10 02:49:09;;;;;;;27.47;15.73;;;4.10;99.90;;;;;;5004491;28;20100;-37
2021/12/10 02:51:36;;;;;;;27.90;14.30;;;4.10;99.90;;;;;;5009038;28;20121;-36
2021/12/10 02:54:05;;;;;;;34.07;15.50;;;4.10;99.90;;;;;;5017015;28;20046;-37
2021/12/10 02:56:31;;;;;;;35.63;15.03;;;4.10;99.90;;;;;;4976602;28;20052;-38
2021/12/10 02:59:00;;;;;;;32.57;15.60;;;4.10;99.90;;;;;;4985041;28;20050;-37
2021/12/10 03:01:36;;;;;;;26.50;15.43;;;4.10;99.90;;;;;;4986676;28;20046;-35
2021/12/10 03:04:03;;;;;;;28.53;15.60;;;4.10;99.90;;;;;;4987515;28;20048;-37
2021/12/10 03:06:30;;;;;;;28.40;15.10;;;4.10;99.90;;;;;;4974845;28;20049;-36
2021/12/10 03:08:57;;;;;;;29.87;15.90;;;4.10;99.90;;;;;;5030376;28;20053;-37
2021/12/10 03:11:30;;;;;;;31.87;16.33;;;4.10;99.90;;;;;;5009524;28;20523;-37
2021/12/10 03:13:57;;;;;;;30.87;15.97;;;4.10;99.90;;;;;;4989637;28;20506;-36
2021/12/10 03:16:23;;;;;;;33.53;15.57;;;4.10;99.90;;;;;;5008922;28;20159;-36
2021/12/10 03:18:49;;;;;;;30.00;14.97;;;4.10;99.90;;;;;;4982233;28;20217;-37
2021/12/10 03:21:16;;;;;;;31.93;16.23;;;4.10;99.90;;;;;;4986041;28;20042;-37
2021/12/10 03:23:46;;;;;;;29.73;16.33;;;4.10;99.90;;;;;;4987438;28;20132;-36
2021/12/10 03:26:15;;;;;;;31.08;16.17;;;4.10;99.90;;;;;;4980023;28;20118;-37
2021/12/10 03:28:43;;;;;;;34.90;16.13;;;4.20;99.90;;;;;;4982276;28;20046;-36
2021/12/10 03:31:10;;;;;;;33.63;16.30;;;4.10;99.90;;;;;;4988552;28;20125;-36
2021/12/10 03:33:39;;;;;;;29.50;16.73;;;4.10;99.90;;;;;;4984916;28;20467;-37
2021/12/10 03:36:06;;;;;;;28.60;16.27;;;4.10;99.90;;;;;;4987408;28;20084;-36
2021/12/10 03:38:33;;;;;;;31.30;16.93;;;4.10;99.90;;;;;;4973007;28;20046;-36
2021/12/10 03:40:59;;;;;;;29.33;17.20;;;4.10;99.90;;;;;;4985494;28;20061;-37
2021/12/10 03:43:26;;;;;;;29.93;16.97;;;4.10;99.90;;;;;;4984190;28;20046;-36
2021/12/10 03:45:55;;;;;;;32.40;17.73;;;4.10;99.90;;;;;;4985583;28;20134;-37
2021/12/10 03:48:32;;;;;;;31.53;18.33;;;4.10;99.90;;;;;;4987240;28;20558;-37
2021/12/10 03:51:01;;;;;;;32.83;18.10;;;4.10;99.90;;;;;;5008808;28;20220;-37
2021/12/10 03:53:27;;;;;;;32.57;17.83;;;4.10;99.90;;;;;;4998386;28;20105;-37
2021/12/10 03:56:00;;;;;;;39.20;18.03;;;4.10;99.90;;;;;;4985431;28;20549;-35
2021/12/10 03:58:25;;;;;;;36.13;17.13;;;4.10;99.90;;;;;;4972270;28;20042;-36
2021/12/10 04:00:53;;;;;;;32.87;16.93;;;4.10;99.90;;;;;;4986021;28;20046;-37
2021/12/10 04:03:22;;;;;;;29.27;17.30;;;4.10;99.90;;;;;;5015852;28;20086;-36
2021/12/10 04:05:49;;;;;;;31.63;17.33;;;4.10;99.90;;;;;;4990388;28;20240;-36
2021/12/10 04:08:15;;;;;;;32.70;16.87;;;4.10;99.90;;;;;;4970201;28;20524;-37
2021/12/10 04:10:41;;;;;;;36.13;17.80;;;4.10;99.90;;;;;;4990357;28;20050;-34
2021/12/10 04:13:09;;;;;;;33.07;17.00;;;4.10;99.90;;;;;;4991137;28;20088;-36
2021/12/10 04:15:36;;;;;;;37.83;17.50;;;4.10;99.90;;;;;;5004787;28;20045;-37
2021/12/10 04:18:03;;;;;;;30.27;16.60;;;4.10;99.90;;;;;;4988395;28;20120;-37
2021/12/10 04:20:31;;;;;;;30.57;16.10;;;4.20;99.90;;;;;;5004526;28;20037;-37
2021/12/10 04:22:58;;;;;;;27.40;16.93;;;4.10;99.90;;;;;;5003384;28;20054;-37
2021/12/10 04:25:26;;;;;;;31.77;17.20;;;4.10;99.90;;;;;;5023222;28;20533;-35
2021/12/10 04:28:00;;;;;;;32.67;17.00;;;4.10;99.90;;;;;;4974808;28;20038;-37
2021/12/10 04:30:29;;;;;;;30.83;16.57;;;4.10;99.90;;;;;;4989022;28;20069;-36
2021/12/10 04:32:54;;;;;;;31.83;15.97;;;4.10;99.90;;;;;;4988311;28;20077;-37
2021/12/10 04:35:20;;;;;;;28.13;16.67;;;4.10;99.90;;;;;;4994741;28;20454;-37
2021/12/10 04:37:49;;;;;;;35.57;17.37;;;4.10;99.90;;;;;;4978780;28;20042;-36
2021/12/10 04:40:18;;;;;;;31.67;16.43;;;4.00;99.90;;;;;;4991897;28;20046;-37
2021/12/10 04:42:45;;;;;;;31.37;17.63;;;4.10;99.90;;;;;;4988263;28;20050;-37
2021/12/10 04:45:14;;;;;;;31.03;18.37;;;4.00;99.90;;;;;;4990055;28;20522;-36
2021/12/10 04:47:40;;;;;;;30.93;18.90;;;4.00;99.90;;;;;;4975689;28;20061;-37
2021/12/10 04:50:08;;;;;;;34.70;19.00;;;4.00;99.90;;;;;;4991814;28;20051;-37
2021/12/10 04:52:34;;;;;;;31.83;18.90;;;4.00;99.90;;;;;;4990531;28;20413;-37
2021/12/10 04:55:02;;;;;;;34.57;19.47;;;4.00;99.90;;;;;;4988485;28;20046;-36
2021/12/10 04:57:28;;;;;;;35.07;20.70;;;4.10;99.90;;;;;;4974526;28;20042;-36
2021/12/10 04:59:54;;;;;;;38.83;20.87;;;3.90;99.90;;;;;;4988626;28;20046;-37
2021/12/10 05:02:19;;;;;;;32.00;19.67;;;3.90;99.90;;;;;;4988214;28;20265;-37
2021/12/10 05:04:47;;;;;;;27.90;19.03;;;3.90;99.90;;;;;;4990541;28;20129;-38
2021/12/10 05:07:15;;;;;;;31.57;19.00;;;3.80;99.90;;;;;;4976161;28;20073;-38
2021/12/10 05:09:41;;;;;;;28.77;18.23;;;3.80;99.90;;;;;;5003264;28;20042;-37
2021/12/10 05:12:08;;;;;;;29.53;17.37;;;3.80;99.90;;;;;;4987277;28;20568;-37
2021/12/10 05:14:34;;;;;;;28.83;17.97;;;3.70;99.90;;;;;;5006115;28;20050;-37
2021/12/10 05:17:06;;;;;;;27.00;17.90;;;3.80;99.90;;;;;;4976488;28;20409;-36
2021/12/10 05:19:31;;;;;;;;;;;3.60;99.90;;;;;;4988021;28;20403;-37
2021/12/10 05:21:59;;;;;;;30.00;19.30;;;3.60;99.90;;;;;;4988408;28;19933;-37
2021/12/10 05:24:26;;;;;;;29.60;19.47;;;3.50;99.90;;;;;;4985890;28;20042;-36
2021/12/10 05:26:54;;;;;;;28.20;19.57;;;3.50;99.90;;;;;;4975597;28;20077;-37
2021/12/10 05:29:19;;;;;;;31.17;20.20;;;3.40;99.90;;;;;;4986922;28;20118;-36
2021/12/10 05:31:46;;;;;;;33.30;20.87;;;3.40;99.90;;;;;;4987815;28;20122;-38
2021/12/10 05:34:12;;;;;;;31.23;20.30;;;3.40;99.90;;;;;;4985419;28;20453;-37
2021/12/10 05:36:39;;;;;;;29.43;21.10;;;3.30;99.90;;;;;;4976581;28;20133;-37
2021/12/10 05:39:06;;;;;;;35.80;22.50;;;3.30;99.90;;;;;;4990463;28;20457;-36
2021/12/10 05:41:32;;;;;;;36.57;21.90;;;3.20;99.90;;;;;;4987536;28;20045;-37
2021/12/10 05:43:58;;;;;;;32.63;22.33;;;3.20;99.90;;;;;;5022285;28;20034;-37
2021/12/10 05:46:24;;;;;;;33.03;21.67;;;3.20;99.90;;;;;;4977627;28;20109;-37
2021/12/10 05:48:50;;;;;;;31.13;21.17;;;3.10;99.90;;;;;;4984271;28;20054;-37
2021/12/10 05:51:16;;;;;;;29.97;21.20;;;3.10;99.90;;;;;;5022933;28;20064;-37
2021/12/10 05:53:42;;;;;;;31.90;21.33;;;3.10;99.90;;;;;;4987492;28;20097;-37
2021/12/10 05:56:08;;;;;;;33.73;22.00;;;3.10;99.90;;;;;;4985504;28;20046;-38
2021/12/10 05:58:34;;;;;;;33.20;20.93;;;3.10;99.90;;;;;;4979368;28;20049;-37
2021/12/10 06:01:12;;;;;;;30.23;20.53;;;3.00;99.90;;;;;;4988036;28;20046;-37
2021/12/10 06:03:40;;;;;;;30.43;20.20;;;3.00;99.90;;;;;;4987419;28;20240;-37
2021/12/10 06:06:07;;;;;;;30.93;20.50;;;3.00;99.90;;;;;;4986216;28;20402;-38
2021/12/10 06:08:34;;;;;;;28.70;20.27;;;3.00;99.90;;;;;;4979008;28;20050;-37
2021/12/10 06:11:00;;;;;;;30.73;21.13;;;3.00;99.90;;;;;;4989555;28;20054;-37
2021/12/10 06:13:27;;;;;;;36.20;22.23;;;2.90;99.90;;;;;;4986369;28;20077;-37
2021/12/10 06:15:53;;;;;;;36.40;21.83;;;2.90;99.90;;;;;;4987038;28;20448;-36
2021/12/10 06:18:19;;;;;;;36.47;22.73;;;2.90;99.90;;;;;;4971009;28;20049;-36
2021/12/10 06:20:49;;;;;;;33.23;22.93;;;2.90;99.90;;;;;;5023805;28;20355;-37
2021/12/10 06:23:16;;;;;;;29.30;22.33;;;2.80;99.90;;;;;;5020124;28;20137;-37
2021/12/10 06:25:42;;;;;;;35.67;23.03;;;2.80;99.90;;;;;;4988179;28;20038;-37
2021/12/10 06:28:09;;;;;;;34.07;22.87;;;2.80;99.90;;;;;;4974265;28;20042;-37
2021/12/10 06:30:39;;;;;;;35.03;23.37;;;2.80;99.90;;;;;;4986949;28;20401;-36
2021/12/10 06:33:10;;;;;;;35.37;22.50;;;2.80;99.90;;;;;;4986149;28;20042;-36
2021/12/10 06:35:38;;;;;;;33.83;22.83;;;2.70;99.90;;;;;;4987931;28;20096;-37
2021/12/10 06:38:04;;;;;;;33.33;22.10;;;2.70;99.90;;;;;;4973609;28;20061;-37
2021/12/10 06:40:33;;;;;;;33.60;22.43;;;2.70;99.90;;;;;;4986581;28;20121;-37
2021/12/10 06:43:00;;;;;;;34.17;22.03;;;2.70;99.90;;;;;;5007960;28;20528;-36
2021/12/10 06:45:28;;;;;;;31.20;21.73;;;2.70;99.90;;;;;;5005412;28;20046;-36
2021/12/10 06:48:00;;;;;;;34.97;21.83;;;2.70;99.90;;;;;;4984483;28;20141;-36
2021/12/10 06:50:29;;;;;;;34.37;21.97;;;2.60;99.90;;;;;;4987307;28;20132;-37
2021/12/10 06:52:57;;;;;;;33.37;22.53;;;2.60;99.90;;;;;;4987418;28;20039;-36
2021/12/10 06:55:23;;;;;;;34.60;22.10;;;2.60;99.90;;;;;;4985122;28;20054;-37
2021/12/10 06:57:50;;;;;;;30.97;21.87;;;2.60;99.90;;;;;;4975708;28;20083;-37
2021/12/10 07:00:21;;;;;;;32.13;22.43;;;2.60;99.90;;;;;;4986028;28;20101;-37
2021/12/10 07:02:47;;;;;;;26.42;17.30;;;2.60;99.90;;;;;;4984695;28;20045;-37
2021/12/10 07:05:13;;;;;;;31.63;22.57;;;2.50;99.90;;;;;;4986008;28;20046;-37
2021/12/10 07:07:40;;;;;;;29.77;21.27;;;2.50;99.90;;;;;;4972816;28;20058;-37
2021/12/10 07:10:08;;;;;;;31.97;23.00;;;2.50;99.90;;;;;;4987121;28;20065;-37
2021/12/10 07:12:38;;;;;;;31.30;22.13;;;2.50;99.90;;;;;;4985083;28;20073;-37
2021/12/10 07:15:08;;;;;;;31.07;20.97;;;2.50;99.90;;;;;;4986380;28;20038;-37
2021/12/10 07:17:34;;;;;;;30.87;21.03;;;2.40;99.90;;;;;;4987643;28;20452;-37
2021/12/10 07:20:00;;;;;;;30.97;19.07;;;2.40;99.90;;;;;;5002768;28;20072;-36
2021/12/10 07:22:25;;;;;;;27.97;19.23;;;2.40;99.90;;;;;;4998273;28;20491;-37
2021/12/10 07:24:51;;;;;;;29.33;19.77;;;2.40;99.90;;;;;;4983962;28;20103;-36
2021/12/10 07:27:17;;;;;;;25.97;18.60;;;2.40;99.90;;;;;;4969341;28;20767;-37
2021/12/10 07:29:43;;;;;;;23.93;16.93;;;2.40;99.90;;;;;;4983482;28;20077;-36
2021/12/10 07:32:09;;;;;;;24.90;17.23;;;2.40;99.90;;;;;;4983291;28;20671;-37
2021/12/10 07:34:35;;;;;;;25.40;16.87;;;2.40;99.90;;;;;;4984549;28;20257;-37
2021/12/10 07:37:01;;;;;;;25.83;17.50;;;2.30;99.90;;;;;;4975330;28;20483;-37
2021/12/10 07:39:28;;;;;;;23.20;16.10;;;2.30;99.90;;;;;;4984838;28;20092;-36
2021/12/10 07:41:54;;;;;;;24.50;15.77;;;2.30;99.90;;;;;;4984446;28;20384;-37
2021/12/10 07:44:20;;;;;;;25.90;16.30;;;2.20;99.90;;;;;;5004516;28;20405;-37
2021/12/10 07:46:48;;;;;;;21.57;14.33;;;2.20;99.90;;;;;;4991443;28;20046;-37
2021/12/10 07:49:16;;;;;;;22.93;14.97;;;2.20;99.90;;;;;;4985847;28;20399;-36
2021/12/10 07:51:45;;;;;;;20.37;14.77;;;2.20;99.90;;;;;;5019780;28;20065;-37
2021/12/10 07:54:12;;;;;;;21.60;14.20;;;2.20;99.90;;;;;;5018735;28;20062;-36
2021/12/10 07:56:38;;;;;;;18.87;13.73;;;2.20;99.90;;;;;;4973901;28;20506;-37
2021/12/10 07:59:05;;;;;;;21.03;14.43;;;2.10;99.90;;;;;;5029898;28;20732;-37
2021/12/10 08:01:31;;;;;;;20.40;14.60;;;2.10;99.90;;;;;;5007423;28;20057;-37
2021/12/10 08:04:00;;;;;;;26.63;14.67;;;2.10;99.90;;;;;;5010212;28;20124;-32
2021/12/10 08:06:28;;;;;;;20.93;13.70;;;2.10;99.90;;;;;;4995866;28;20543;-37
2021/12/10 08:08:54;;;;;;;23.70;15.00;;;2.00;99.90;;;;;;5002163;28;20042;-36
2021/12/10 08:11:21;;;;;;;25.57;15.87;;;2.00;99.90;;;;;;5009270;28;20136;-37
2021/12/10 08:13:48;;;;;;;23.93;15.53;;;2.00;99.90;;;;;;4992801;28;20049;-37
2021/12/10 08:16:14;;;;;;;25.27;16.03;;;2.00;99.90;;;;;;4982578;28;20100;-37
2021/12/10 08:18:39;;;;;;;22.37;15.40;;;2.00;99.90;;;;;;4985055;28;20046;-36
2021/12/10 08:21:06;;;;;;;25.23;15.10;;;2.00;99.90;;;;;;4991828;28;20460;-37
2021/12/10 08:23:34;;;;;;;25.27;16.47;;;2.00;99.90;;;;;;5029285;28;20038;-36
2021/12/10 08:25:59;;;;;;;22.83;15.47;;;2.00;99.90;;;;;;4989547;28;20561;-37
2021/12/10 08:28:26;;;;;;;23.00;15.33;;;2.00;99.90;;;;;;4983604;28;20052;-36
2021/12/10 08:30:54;;;;;;;26.67;15.90;;;2.00;99.90;;;;;;5002394;28;20054;-37
2021/12/10 08:33:21;;;;;;;24.20;15.03;;;2.00;99.90;;;;;;5003697;28;20247;-36
2021/12/10 08:35:50;;;;;;;23.70;15.03;;;2.00;99.90;;;;;;5004088;28;20042;-36
2021/12/10 08:38:16;;;;;;;24.00;15.20;;;2.00;99.90;;;;;;4993821;28;20049;-36
2021/12/10 08:40:47;;;;;;;26.43;14.77;;;2.00;99.90;;;;;;5010594;28;20068;-37
2021/12/10 08:43:12;;;;;;;23.93;14.23;;;2.00;99.90;;;;;;5006606;28;20129;-37
2021/12/10 08:45:41;;;;;;;22.60;14.53;;;2.00;99.90;;;;;;5000671;28;20376;-36
2021/12/10 08:48:07;;;;;;;23.07;14.23;;;2.00;99.90;;;;;;4990600;28;20087;-37
2021/12/10 08:50:33;;;;;;;22.37;14.63;;;2.00;99.90;;;;;;5010521;28;20042;-37
2021/12/10 08:53:13;;;;;;;19.67;13.33;;;2.10;99.90;;;;;;5010663;28;20115;-38
2021/12/10 08:55:41;;;;;;;21.10;13.50;;;2.10;99.90;;;;;;5050813;28;20041;-36
2021/12/10 08:58:07;;;;;;;22.87;13.13;;;2.00;99.90;;;;;;4994175;28;20042;-36
2021/12/10 09:00:34;;;;;;;24.53;12.93;;;2.10;99.90;;;;;;5009673;28;20096;-37
2021/12/10 09:03:00;;;;;;;21.03;12.37;;;2.10;99.90;;;;;;5001528;28;20135;-37
2021/12/10 09:05:27;;;;;;;23.40;12.63;;;2.10;99.90;;;;;;5002924;28;20045;-38
2021/12/10 09:07:53;;;;;;;19.63;12.50;;;2.10;99.90;;;;;;4992789;28;20057;-36
2021/12/10 09:10:26;;;;;;;22.43;12.47;;;2.20;99.90;;;;;;5019817;28;20045;-37
2021/12/10 09:12:52;;;;;;;19.63;13.07;;;2.20;99.90;;;;;;5009320;28;20065;-36
2021/12/10 09:15:21;;;;;;;23.47;11.77;;;2.20;99.90;;;;;;5006472;28;20081;-37
2021/12/10 09:17:49;;;;;;;18.27;12.17;;;2.20;99.90;;;;;;4988227;28;20050;-36
2021/12/10 09:20:23;;;;;;;19.33;12.10;;;2.30;99.90;;;;;;4992174;28;20038;-36
2021/12/10 09:22:49;;;;;;;18.83;11.93;;;2.40;99.90;;;;;;4996215;28;20038;-36
2021/12/10 09:25:17;;;;;;;19.60;11.70;;;2.30;99.90;;;;;;5012612;28;20095;-36
2021/12/10 09:27:43;;;;;;;18.17;12.07;;;2.40;99.90;;;;;;5016679;28;20327;-37
2021/12/10 09:30:12;;;;;;;18.67;12.37;;;2.40;99.90;;;;;;5011419;28;20045;-37
2021/12/10 09:32:38;;;;;;;22.33;11.20;;;2.40;99.90;;;;;;5009726;28;20057;-37
2021/12/10 09:35:07;;;;;;;19.87;12.07;;;2.40;99.90;;;;;;5005602;28;20053;-37
2021/12/10 09:37:37;;;;;;;18.17;11.77;;;2.50;99.90;;;;;;4990883;28;20457;-37
2021/12/10 09:40:13;;;;;;;18.30;8.83;;;2.50;99.90;;;;;;5035330;28;20048;-37
2021/12/10 09:42:41;;;;;;;21.97;11.40;;;2.50;99.90;;;;;;5006313;28;20148;-37
2021/12/10 09:45:10;;;;;;;17.63;10.70;;;2.60;99.90;;;;;;5011294;28;20132;-38
2021/12/10 09:47:37;;;;;;;16.87;10.73;;;2.60;99.90;;;;;;4997926;28;20074;-35
2021/12/10 09:50:05;;;;;;;19.47;11.13;;;2.70;99.90;;;;;;5012414;28;21014;-35
2021/12/10 09:52:31;;;;;;;16.73;10.60;;;2.70;99.90;;;;;;5025906;28;20081;-37
2021/12/10 09:54:57;;;;;;;19.73;10.43;;;2.80;99.90;;;;;;4990594;28;20069;-37
2021/12/10 09:57:31;;;;;;;17.47;10.77;;;2.90;99.90;;;;;;4976125;28;20046;-37
2021/12/10 10:00:00;;;;;;;17.83;10.27;;;3.00;99.90;;;;;;4981198;28;20049;-36
2021/12/10 10:02:26;;;;;;;18.07;10.17;;;3.10;99.90;;;;;;5028181;28;20543;-37
2021/12/10 10:04:54;;;;;;;15.50;10.20;;;3.20;99.90;;;;;;4995007;28;20054;-36
2021/12/10 10:07:24;;;;;;;14.43;9.33;;;3.30;99.90;;;;;;4976026;28;20073;-36
2021/12/10 10:09:54;;;;;;;16.93;10.03;;;3.40;99.90;;;;;;4996157;28;20333;-37
2021/12/10 10:12:24;;;;;;;16.97;9.80;;;3.40;99.90;;;;;;4995840;28;20049;-37
2021/12/10 10:14:51;;;;;;;16.47;9.57;;;3.50;99.90;;;;;;4990586;28;20062;-36
2021/12/10 10:17:18;;;;;;;14.87;9.47;;;3.70;99.90;;;;;;4975265;28;20050;-37
2021/12/10 10:19:45;;;;;;;18.40;9.50;;;3.80;99.90;;;;;;4990686;28;20461;-37
2021/12/10 10:22:14;;;;;;;16.27;9.27;;;3.90;99.90;;;;;;4988547;28;20046;-37
2021/12/10 10:24:40;;;;;;;15.23;9.63;;;4.10;99.90;;;;;;4990283;28;20077;-37
2021/12/10 10:27:17;;;;;;;12.53;9.07;;;4.30;99.90;;;;;;4976831;28;20050;-37
2021/12/10 10:29:52;;;;;;;14.07;9.00;;;4.40;99.90;;;;;;4996356;28;20099;-37
2021/12/10 10:32:22;;;;;;;13.20;8.57;;;4.60;99.90;;;;;;4987009;28;20053;-37
2021/12/10 10:34:52;;;;;;;12.03;8.37;;;4.80;99.90;;;;;;4997198;28;20046;-37
2021/12/10 10:37:19;;;;;;;13.40;8.13;;;5.00;99.90;;;;;;4982023;28;20072;-38
2021/12/10 10:39:46;;;;;;;13.80;8.10;;;5.20;99.90;;;;;;4995112;28;20149;-37
2021/12/10 10:42:16;;;;;;;9.67;7.07;;;5.20;99.90;;;;;;4991070;28;20049;-38
2021/12/10 10:44:43;;;;;;;9.93;6.53;;;5.30;99.90;;;;;;4994350;28;20184;-37
2021/12/10 10:47:09;;;;;;;10.40;7.10;;;5.40;99.90;;;;;;4967112;28;20137;-38
2021/12/10 10:49:42;;;;;;;10.13;6.57;;;5.50;99.90;;;;;;4992655;28;20137;-37
2021/12/10 10:52:29;;;;;;;11.00;6.37;;;5.60;99.90;;;;;;4992734;28;20041;-37
2021/12/10 10:55:27;;;;;;;10.37;6.03;;;5.60;99.90;;;;;;4993997;28;20093;-37
2021/12/10 10:58:06;;;;;;;9.53;6.17;;;5.70;99.90;;;;;;4978220;28;20053;-37
2021/12/10 11:01:04;;;;;;;10.40;5.90;;;5.70;99.90;;;;;;4988472;28;20042;-38
2021/12/10 11:03:38;;;;;;;10.70;5.30;;;5.70;99.90;;;;;;4991697;28;20039;-36
2021/12/10 11:06:11;;;;;;;10.00;5.77;;;5.70;99.90;;;;;;4992957;28;20077;-37
2021/12/10 11:08:41;;;;;;;9.73;5.83;;;5.50;99.90;;;;;;4983657;28;20050;-37
2021/12/10 11:11:34;;;;;;;9.10;5.77;;;5.60;99.90;;;;;;4993143;28;20502;-37
2021/12/10 11:14:04;;;;;;;10.73;5.73;;;5.60;99.90;;;;;;4992287;28;20134;-38
2021/12/10 11:16:32;;;;;;;10.53;6.17;;;5.50;99.90;;;;;;4977440;28;20482;-36
2021/12/10 11:19:01;;;;;;;9.03;5.50;;;5.50;99.90;;;;;;4988142;28;20042;-38
2021/12/10 11:21:50;;;;;;;8.87;6.20;;;5.50;99.90;;;;;;4991603;28;20187;-37
2021/12/10 11:24:34;;;;;;;11.30;6.23;;;5.40;99.90;;;;;;4987174;28;20498;-38
2021/12/10 11:27:17;;;;;;;9.83;6.00;;;5.40;99.90;;;;;;4972809;28;20473;-36
2021/12/10 11:29:50;;;;;;;8.50;6.00;;;5.40;99.90;;;;;;5013799;28;20101;-36
2021/12/10 11:32:38;;;;;;;10.37;5.80;;;5.30;99.90;;;;;;5012898;28;20517;-37
2021/12/10 11:35:16;;;;;;;7.97;6.10;;;5.30;99.90;;;;;;5000993;28;20121;-37
2021/12/10 11:37:55;;;;;;;9.10;6.03;;;5.30;99.90;;;;;;4999665;28;20115;-36
2021/12/10 11:41:01;;;;;;;10.10;6.37;;;5.40;99.90;;;;;;4996563;28;20085;-37
2021/12/10 11:48:50;;;;;;;14.60;5.83;;;5.50;99.90;;;;;;5007151;28;20042;-37
2021/12/10 11:51:25;;;;;;;9.87;6.10;;;5.60;99.90;;;;;;5011157;28;20128;-37
2021/12/10 11:53:56;;;;;;;8.83;5.33;;;5.60;99.90;;;;;;4996792;28;20761;-37
2021/12/10 11:56:37;;;;;;;7.23;5.83;;;5.60;99.90;;;;;;4980666;28;20057;-37
2021/12/10 11:59:13;;;;;;;9.83;5.43;;;5.50;99.90;;;;;;4988353;28;20050;-34
2021/12/10 12:01:57;;;;;;;9.73;5.70;;;5.50;99.90;;;;;;4990088;28;20050;-37
2021/12/10 12:04:38;;;;;;;11.47;6.30;;;5.50;99.90;;;;;;4988909;28;20053;-36
2021/12/10 12:07:18;;;;;;;9.00;6.00;;;5.50;99.90;;;;;;4972145;28;20043;-37
2021/12/10 12:09:57;;;;;;;8.23;5.10;;;5.50;99.90;;;;;;4996409;28;20304;-38
2021/12/10 12:12:27;;;;;;;9.30;5.63;;;5.50;99.90;;;;;;4994656;28;20049;-37
2021/12/10 12:14:55;;;;;;;9.77;5.30;;;5.40;99.90;;;;;;4988033;28;20088;-36
2021/12/10 12:17:32;;;;;;;9.97;5.40;;;5.40;99.90;;;;;;4990192;28;20469;-38
2021/12/10 12:19:57;;;;;;;8.90;5.40;;;5.40;99.90;;;;;;4994614;28;20150;-37
2021/12/10 12:25:25;;;;;;;7.83;4.93;;;5.30;99.90;;;;;;5013415;28;20443;-36
2021/12/10 12:28:11;;;;;;;8.90;5.37;;;5.30;99.90;;;;;;4993685;28;20351;-38
2021/12/10 12:31:14;;;;;;;11.30;5.47;;;5.30;99.90;;;;;;4996329;28;20043;-37
2021/12/10 12:34:05;;;;;;;8.50;5.00;;;5.30;99.90;;;;;;4997984;28;20460;-37
2021/12/10 12:36:51;;;;;;;8.60;5.17;;;5.30;99.90;;;;;;5002250;28;20056;-36
2021/12/10 12:39:38;;;;;;;7.80;5.00;;;5.20;99.90;;;;;;5014889;28;20104;-36
2021/12/10 12:42:16;;;;;;;8.80;5.00;;;5.20;99.90;;;;;;5000539;28;20048;-37
2021/12/10 12:44:42;;;;;;;8.47;4.67;;;5.10;99.90;;;;;;5001050;28;20124;-37
2021/12/10 12:47:21;;;;;;;8.47;4.63;;;5.10;99.90;;;;;;4983943;28;20495;-37
2021/12/10 12:49:47;;;;;;;9.50;4.80;;;5.10;99.90;;;;;;4999205;28;20061;-37
2021/12/10 12:52:23;;;;;;;8.90;4.73;;;5.00;99.90;;;;;;5000556;28;20034;-37
2021/12/10 12:55:09;;;;;;;7.50;4.70;;;5.00;99.90;;;;;;4998934;28;20422;-37
2021/12/10 12:57:46;;;;;;;9.53;5.03;;;5.00;99.90;;;;;;4981885;28;20053;-36
2021/12/10 13:00:39;;;;;;;7.63;4.53;;;5.00;99.90;;;;;;4999452;28;21144;-37
2021/12/10 13:03:09;;;;;;;9.30;4.60;;;4.90;99.90;;;;;;5001518;28;20137;-37
2021/12/10 13:05:43;;;;;;;9.97;5.20;;;4.90;99.90;;;;;;5017039;28;20116;-37
2021/12/10 13:08:14;;;;;;;7.30;3.90;;;4.80;99.90;;;;;;5003487;28;20396;-38
2021/12/10 13:10:46;;;;;;;7.23;4.37;;;4.90;99.90;;;;;;5016095;28;20512;-37